sensor_id;sensor_type;location;lat;lon;timestamp;pressure;altitude;pressure_sealevel;temperature;humidity
29045;BME280;16133;49.486;12.176;2022-07-23T00:00:00;97374.16;;;17.37;100.00
29045;BME280;16133;49.486;12.176;2022-07-23T00:02:25;97375.22;;;17.36;100.00
29045;BME280;16133;49.486;12.176;2022-07-23T00:04:51;97374.41;;;17.35;100.00
29045;BME280;16133;49.486;12.176;2022-07-23T00:07:16;97380.81;;;17.34;100.00
29045;BME280;16133;49.486;12.176;2022-07-23T00:09:42;97374.84;;;17.32;99.02
29045;BME280;16133;49.486;12.176;2022-07-23T00:12:07;97368.66;;;17.32;98.62
29045;BME280;16133;49.486;12.176;2022-07-23T00:14:32;97359.19;;;17.29;98.57
29045;BME280;16133;49.486;12.176;2022-07-23T00:16:58;97353.00;;;17.29;97.87
29045;BME280;16133;49.486;12.176;2022-07-23T00:19:23;97347.06;;;17.27;98.43
29045;BME280;16133;49.486;12.176;2022-07-23T00:21:49;97338.63;;;17.23;98.20
29045;BME280;16133;49.486;12.176;2022-07-23T00:24:14;97331.25;;;17.18;99.39
29045;BME280;16133;49.486;12.176;2022-07-23T00:26:39;97325.72;;;17.13;100.00
29045;BME280;16133;49.486;12.176;2022-07-23T00:29:05;97292.91;;;17.00;100.00
29045;BME280;16133;49.486;12.176;2022-07-23T00:31:30;97314.06;;;17.08;100.00
29045;BME280;16133;49.486;12.176;2022-07-23T00:33:55;97296.56;;;17.05;100.00
29045;BME280;16133;49.486;12.176;2022-07-23T00:36:22;97279.66;;;17.05;100.00
29045;BME280;16133;49.486;12.176;2022-07-23T00:38:49;97275.31;;;17.04;100.00
29045;BME280;16133;49.486;12.176;2022-07-23T00:41:14;97275.50;;;17.09;100.00
29045;BME280;16133;49.486;12.176;2022-07-23T00:43:39;97280.41;;;17.12;100.00
29045;BME280;16133;49.486;12.176;2022-07-23T00:46:05;97288.13;;;17.20;100.00
29045;BME280;16133;49.486;12.176;2022-07-23T00:48:30;97284.34;;;17.28;100.00
29045;BME280;16133;49.486;12.176;2022-07-23T00:50:56;97285.81;;;17.42;100.00
29045;BME280;16133;49.486;12.176;2022-07-23T00:53:21;97311.97;;;17.64;100.00
29045;BME280;16133;49.486;12.176;2022-07-23T00:55:48;97332.53;;;18.00;100.00
29045;BME280;16133;49.486;12.176;2022-07-23T00:58:14;97323.34;;;18.08;100.00
29045;BME280;16133;49.486;12.176;2022-07-23T01:00:41;97310.63;;;18.80;84.78
29045;BME280;16133;49.486;12.176;2022-07-23T01:03:06;97310.63;;;19.03;82.38
29045;BME280;16133;49.486;12.176;2022-07-23T01:05:32;97332.47;;;19.18;86.11
29045;BME280;16133;49.486;12.176;2022-07-23T01:07:58;97328.13;;;19.29;93.69
29045;BME280;16133;49.486;12.176;2022-07-23T01:10:24;97354.78;;;19.30;94.95
29045;BME280;16133;49.486;12.176;2022-07-23T01:12:57;97390.94;;;19.23;96.63
29045;BME280;16133;49.486;12.176;2022-07-23T01:15:23;97400.19;;;19.15;97.36
29045;BME280;16133;49.486;12.176;2022-07-23T01:17:48;97394.56;;;19.05;100.00
29045;BME280;16133;49.486;12.176;2022-07-23T01:20:14;97404.63;;;18.98;100.00
29045;BME280;16133;49.486;12.176;2022-07-23T01:22:39;97377.38;;;18.83;100.00
29045;BME280;16133;49.486;12.176;2022-07-23T01:25:05;97373.25;;;18.69;100.00
29045;BME280;16133;49.486;12.176;2022-07-23T01:27:31;97367.19;;;18.61;100.00
29045;BME280;16133;49.486;12.176;2022-07-23T01:29:57;97370.91;;;18.60;100.00
29045;BME280;16133;49.486;12.176;2022-07-23T01:32:22;97355.34;;;18.51;100.00
29045;BME280;16133;49.486;12.176;2022-07-23T01:34:48;97347.34;;;18.44;100.00
29045;BME280;16133;49.486;12.176;2022-07-23T01:37:13;97352.84;;;18.38;100.00
29045;BME280;16133;49.486;12.176;2022-07-23T01:39:38;97340.91;;;18.34;100.00
29045;BME280;16133;49.486;12.176;2022-07-23T01:42:04;97344.28;;;18.29;100.00
29045;BME280;16133;49.486;12.176;2022-07-23T01:44:30;97332.16;;;18.27;100.00
29045;BME280;16133;49.486;12.176;2022-07-23T01:46:56;97303.28;;;18.22;100.00
29045;BME280;16133;49.486;12.176;2022-07-23T01:49:21;97306.66;;;18.17;100.00
29045;BME280;16133;49.486;12.176;2022-07-23T01:51:46;97312.03;;;18.17;100.00
29045;BME280;16133;49.486;12.176;2022-07-23T01:54:30;97302.78;;;18.13;100.00
29045;BME280;16133;49.486;12.176;2022-07-23T01:56:56;97309.44;;;18.11;100.00
29045;BME280;16133;49.486;12.176;2022-07-23T01:59:22;97292.97;;;18.07;100.00
29045;BME280;16133;49.486;12.176;2022-07-23T02:01:48;97307.44;;;18.06;100.00
29045;BME280;16133;49.486;12.176;2022-07-23T02:04:16;97305.00;;;18.05;100.00
29045;BME280;16133;49.486;12.176;2022-07-23T02:06:42;97303.38;;;18.04;100.00
29045;BME280;16133;49.486;12.176;2022-07-23T02:09:07;97302.31;;;18.05;100.00
29045;BME280;16133;49.486;12.176;2022-07-23T02:11:32;97300.69;;;18.04;100.00
29045;BME280;16133;49.486;12.176;2022-07-23T02:13:58;97314.09;;;18.04;100.00
29045;BME280;16133;49.486;12.176;2022-07-23T02:16:23;97310.59;;;18.03;100.00
29045;BME280;16133;49.486;12.176;2022-07-23T02:18:48;97296.34;;;18.03;100.00
29045;BME280;16133;49.486;12.176;2022-07-23T02:21:14;97272.19;;;18.03;100.00
29045;BME280;16133;49.486;12.176;2022-07-23T02:23:40;97287.47;;;18.02;100.00
29045;BME280;16133;49.486;12.176;2022-07-23T02:26:05;97290.41;;;18.01;100.00
29045;BME280;16133;49.486;12.176;2022-07-23T02:28:31;97283.38;;;18.00;100.00
29045;BME280;16133;49.486;12.176;2022-07-23T02:30:56;97291.44;;;18.00;100.00
29045;BME280;16133;49.486;12.176;2022-07-23T02:33:21;97288.97;;;17.98;100.00
29045;BME280;16133;49.486;12.176;2022-07-23T02:35:47;97279.06;;;17.99;100.00
29045;BME280;16133;49.486;12.176;2022-07-23T02:38:12;97292.47;;;17.99;100.00
29045;BME280;16133;49.486;12.176;2022-07-23T02:40:38;97286.66;;;18.02;100.00
29045;BME280;16133;49.486;12.176;2022-07-23T02:43:03;97301.56;;;17.98;100.00
29045;BME280;16133;49.486;12.176;2022-07-23T02:45:29;97310.22;;;18.00;100.00
29045;BME280;16133;49.486;12.176;2022-07-23T02:47:54;97310.44;;;17.98;100.00
29045;BME280;16133;49.486;12.176;2022-07-23T02:50:20;97318.66;;;18.03;100.00
29045;BME280;16133;49.486;12.176;2022-07-23T02:52:45;97319.84;;;18.07;100.00
29045;BME280;16133;49.486;12.176;2022-07-23T02:55:10;97314.81;;;18.11;100.00
29045;BME280;16133;49.486;12.176;2022-07-23T02:57:36;97328.59;;;18.14;100.00
29045;BME280;16133;49.486;12.176;2022-07-23T03:00:04;97342.19;;;18.20;100.00
29045;BME280;16133;49.486;12.176;2022-07-23T03:02:29;97342.53;;;18.23;100.00
29045;BME280;16133;49.486;12.176;2022-07-23T03:04:55;97338.81;;;18.24;100.00
29045;BME280;16133;49.486;12.176;2022-07-23T03:07:20;97337.53;;;18.27;100.00
29045;BME280;16133;49.486;12.176;2022-07-23T03:09:45;97347.44;;;18.26;100.00
29045;BME280;16133;49.486;12.176;2022-07-23T03:12:11;97339.38;;;18.26;100.00
29045;BME280;16133;49.486;12.176;2022-07-23T03:14:36;97333.44;;;18.24;100.00
29045;BME280;16133;49.486;12.176;2022-07-23T03:17:02;97339.97;;;18.28;100.00
29045;BME280;16133;49.486;12.176;2022-07-23T03:19:27;97344.06;;;18.31;100.00
29045;BME280;16133;49.486;12.176;2022-07-23T03:21:52;97325.94;;;18.26;100.00
29045;BME280;16133;49.486;12.176;2022-07-23T03:24:18;97345.78;;;18.25;100.00
29045;BME280;16133;49.486;12.176;2022-07-23T03:26:43;97355.97;;;18.23;100.00
29045;BME280;16133;49.486;12.176;2022-07-23T03:29:09;97348.47;;;18.25;100.00
29045;BME280;16133;49.486;12.176;2022-07-23T03:31:35;97352.25;;;18.24;100.00
29045;BME280;16133;49.486;12.176;2022-07-23T03:34:00;97355.34;;;18.21;100.00
29045;BME280;16133;49.486;12.176;2022-07-23T03:36:26;97346.47;;;18.21;100.00
29045;BME280;16133;49.486;12.176;2022-07-23T03:38:51;97354.78;;;18.19;100.00
29045;BME280;16133;49.486;12.176;2022-07-23T03:41:18;97352.44;;;18.23;100.00
29045;BME280;16133;49.486;12.176;2022-07-23T03:43:43;97356.63;;;18.19;100.00
29045;BME280;16133;49.486;12.176;2022-07-23T03:46:09;97351.72;;;18.15;100.00
29045;BME280;16133;49.486;12.176;2022-07-23T03:48:35;97361.19;;;18.18;100.00
29045;BME280;16133;49.486;12.176;2022-07-23T03:51:00;97370.28;;;18.17;100.00
29045;BME280;16133;49.486;12.176;2022-07-23T03:53:25;97359.53;;;18.17;100.00
29045;BME280;16133;49.486;12.176;2022-07-23T03:55:51;97359.53;;;18.17;100.00
29045;BME280;16133;49.486;12.176;2022-07-23T03:58:16;97372.41;;;18.15;100.00
29045;BME280;16133;49.486;12.176;2022-07-23T04:00:42;97382.09;;;18.16;100.00
29045;BME280;16133;49.486;12.176;2022-07-23T04:03:10;97374.47;;;18.13;100.00
29045;BME280;16133;49.486;12.176;2022-07-23T04:05:35;97370.19;;;18.12;100.00
29045;BME280;16133;49.486;12.176;2022-07-23T04:08:01;97356.38;;;18.08;100.00
29045;BME280;16133;49.486;12.176;2022-07-23T04:10:29;97353.59;;;18.15;100.00
29045;BME280;16133;49.486;12.176;2022-07-23T04:12:55;97346.13;;;18.17;100.00
29045;BME280;16133;49.486;12.176;2022-07-23T04:15:20;97345.91;;;18.19;100.00
29045;BME280;16133;49.486;12.176;2022-07-23T04:17:45;97352.09;;;18.19;100.00
29045;BME280;16133;49.486;12.176;2022-07-23T04:20:12;97344.03;;;18.19;100.00
29045;BME280;16133;49.486;12.176;2022-07-23T04:22:37;97346.25;;;18.22;100.00
29045;BME280;16133;49.486;12.176;2022-07-23T04:25:03;97343.09;;;18.25;100.00
29045;BME280;16133;49.486;12.176;2022-07-23T04:27:29;97334.00;;;18.26;100.00
29045;BME280;16133;49.486;12.176;2022-07-23T04:29:54;97330.84;;;18.29;100.00
29045;BME280;16133;49.486;12.176;2022-07-23T04:32:20;97318.59;;;18.33;100.00
29045;BME280;16133;49.486;12.176;2022-07-23T04:34:45;97329.50;;;18.38;100.00
29045;BME280;16133;49.486;12.176;2022-07-23T04:37:10;97324.25;;;18.43;100.00
29045;BME280;16133;49.486;12.176;2022-07-23T04:39:36;97318.97;;;18.48;100.00
29045;BME280;16133;49.486;12.176;2022-07-23T04:42:01;97317.03;;;18.55;100.00
29045;BME280;16133;49.486;12.176;2022-07-23T04:44:26;97319.63;;;18.62;100.00
29045;BME280;16133;49.486;12.176;2022-07-23T04:46:52;97332.34;;;18.67;100.00
29045;BME280;16133;49.486;12.176;2022-07-23T04:49:17;97333.91;;;18.74;100.00
29045;BME280;16133;49.486;12.176;2022-07-23T04:51:42;97339.97;;;18.81;100.00
29045;BME280;16133;49.486;12.176;2022-07-23T04:54:08;97324.75;;;18.87;100.00
29045;BME280;16133;49.486;12.176;2022-07-23T04:56:33;97334.81;;;18.91;100.00
29045;BME280;16133;49.486;12.176;2022-07-23T04:58:59;97335.78;;;18.97;100.00
29045;BME280;16133;49.486;12.176;2022-07-23T05:01:24;97345.56;;;19.03;100.00
29045;BME280;16133;49.486;12.176;2022-07-23T05:03:49;97345.69;;;19.08;100.00
29045;BME280;16133;49.486;12.176;2022-07-23T05:06:15;97340.66;;;19.12;100.00
29045;BME280;16133;49.486;12.176;2022-07-23T05:08:41;97337.28;;;19.16;100.00
29045;BME280;16133;49.486;12.176;2022-07-23T05:11:06;97341.13;;;19.20;100.00
29045;BME280;16133;49.486;12.176;2022-07-23T05:13:32;97337.72;;;19.25;100.00
29045;BME280;16133;49.486;12.176;2022-07-23T05:15:57;97337.34;;;19.33;100.00
29045;BME280;16133;49.486;12.176;2022-07-23T05:18:22;97343.56;;;19.45;100.00
29045;BME280;16133;49.486;12.176;2022-07-23T05:20:48;97337.34;;;19.56;100.00
29045;BME280;16133;49.486;12.176;2022-07-23T05:23:13;97344.91;;;19.71;100.00
29045;BME280;16133;49.486;12.176;2022-07-23T05:25:39;97343.00;;;19.83;100.00
29045;BME280;16133;49.486;12.176;2022-07-23T05:28:05;97346.78;;;19.98;100.00
29045;BME280;16133;49.486;12.176;2022-07-23T05:30:30;97338.78;;;20.15;100.00
29045;BME280;16133;49.486;12.176;2022-07-23T05:32:56;97336.13;;;20.32;100.00
29045;BME280;16133;49.486;12.176;2022-07-23T05:35:21;97339.44;;;20.50;100.00
29045;BME280;16133;49.486;12.176;2022-07-23T05:37:46;97340.25;;;20.68;100.00
29045;BME280;16133;49.486;12.176;2022-07-23T05:40:12;97335.66;;;20.85;100.00
29045;BME280;16133;49.486;12.176;2022-07-23T05:42:39;97333.84;;;21.07;100.00
29045;BME280;16133;49.486;12.176;2022-07-23T05:45:05;97338.75;;;21.27;100.00
29045;BME280;16133;49.486;12.176;2022-07-23T05:47:45;97343.72;;;21.57;100.00
29045;BME280;16133;49.486;12.176;2022-07-23T05:50:11;97346.22;;;21.85;100.00
29045;BME280;16133;49.486;12.176;2022-07-23T05:52:37;97341.38;;;22.09;98.30
29045;BME280;16133;49.486;12.176;2022-07-23T05:55:03;97339.03;;;22.17;97.63
29045;BME280;16133;49.486;12.176;2022-07-23T05:57:29;97341.38;;;22.35;97.42
29045;BME280;16133;49.486;12.176;2022-07-23T05:59:55;97346.22;;;22.65;96.19
29045;BME280;16133;49.486;12.176;2022-07-23T06:02:20;97335.09;;;22.88;94.06
29045;BME280;16133;49.486;12.176;2022-07-23T06:04:45;97346.88;;;23.09;92.25
29045;BME280;16133;49.486;12.176;2022-07-23T06:07:11;97354.91;;;23.36;90.01
29045;BME280;16133;49.486;12.176;2022-07-23T06:09:36;97351.03;;;23.69;87.83
29045;BME280;16133;49.486;12.176;2022-07-23T06:12:02;97359.56;;;23.98;84.89
29045;BME280;16133;49.486;12.176;2022-07-23T06:14:27;97353.97;;;24.24;82.54
29045;BME280;16133;49.486;12.176;2022-07-23T06:16:53;97358.34;;;24.41;80.45
29045;BME280;16133;49.486;12.176;2022-07-23T06:19:18;97363.22;;;24.54;79.77
29045;BME280;16133;49.486;12.176;2022-07-23T06:21:43;97370.03;;;24.66;78.48
29045;BME280;16133;49.486;12.176;2022-07-23T06:24:09;97377.91;;;24.78;76.21
29045;BME280;16133;49.486;12.176;2022-07-23T06:26:34;97378.50;;;24.90;76.46
29045;BME280;16133;49.486;12.176;2022-07-23T06:28:59;97378.19;;;24.92;75.29
29045;BME280;16133;49.486;12.176;2022-07-23T06:31:25;97367.91;;;24.94;75.21
29045;BME280;16133;49.486;12.176;2022-07-23T06:33:50;97374.41;;;24.98;74.54
29045;BME280;16133;49.486;12.176;2022-07-23T06:36:16;97368.97;;;25.08;74.72
29045;BME280;16133;49.486;12.176;2022-07-23T06:38:41;97367.88;;;25.19;73.70
29045;BME280;16133;49.486;12.176;2022-07-23T06:41:07;97378.47;;;25.26;72.08
29045;BME280;16133;49.486;12.176;2022-07-23T06:43:32;97374.13;;;25.30;71.54
29045;BME280;16133;49.486;12.176;2022-07-23T06:45:57;97374.09;;;25.35;71.81
29045;BME280;16133;49.486;12.176;2022-07-23T06:48:23;97367.56;;;25.41;71.42
29045;BME280;16133;49.486;12.176;2022-07-23T06:50:48;97370.25;;;25.51;68.22
29045;BME280;16133;49.486;12.176;2022-07-23T06:53:14;97362.66;;;25.48;69.41
29045;BME280;16133;49.486;12.176;2022-07-23T06:55:39;97369.72;;;25.49;69.58
29045;BME280;16133;49.486;12.176;2022-07-23T06:58:05;97374.09;;;25.55;68.12
29045;BME280;16133;49.486;12.176;2022-07-23T07:00:31;97383.31;;;25.59;66.20
29045;BME280;16133;49.486;12.176;2022-07-23T07:02:57;97383.00;;;25.71;65.99
29045;BME280;16133;49.486;12.176;2022-07-23T07:05:23;97387.06;;;25.83;64.51
29045;BME280;16133;49.486;12.176;2022-07-23T07:07:50;97383.44;;;25.98;64.17
29045;BME280;16133;49.486;12.176;2022-07-23T07:10:15;97384.72;;;26.10;64.43
29045;BME280;16133;49.486;12.176;2022-07-23T07:12:42;97389.03;;;26.27;63.16
29045;BME280;16133;49.486;12.176;2022-07-23T07:15:08;97386.78;;;26.44;62.54
29045;BME280;16133;49.486;12.176;2022-07-23T07:17:33;97390.50;;;26.53;60.38
29045;BME280;16133;49.486;12.176;2022-07-23T07:19:59;97398.09;;;26.61;58.65
29045;BME280;16133;49.486;12.176;2022-07-23T07:22:24;97405.44;;;26.60;59.52
29045;BME280;16133;49.486;12.176;2022-07-23T07:24:49;97407.88;;;26.67;59.72
29045;BME280;16133;49.486;12.176;2022-07-23T07:27:15;97404.75;;;26.84;59.44
29045;BME280;16133;49.486;12.176;2022-07-23T07:29:40;97407.13;;;26.95;59.46
29045;BME280;16133;49.486;12.176;2022-07-23T07:32:06;97404.50;;;26.85;59.04
29045;BME280;16133;49.486;12.176;2022-07-23T07:34:31;97412.28;;;26.97;59.03
29045;BME280;16133;49.486;12.176;2022-07-23T07:36:56;97414.16;;;27.01;59.14
29045;BME280;16133;49.486;12.176;2022-07-23T07:39:22;97415.38;;;27.19;59.03
29045;BME280;16133;49.486;12.176;2022-07-23T07:41:47;97420.78;;;27.24;58.54
29045;BME280;16133;49.486;12.176;2022-07-23T07:44:13;97412.16;;;27.46;58.14
29045;BME280;16133;49.486;12.176;2022-07-23T07:46:38;97423.59;;;27.48;57.34
29045;BME280;16133;49.486;12.176;2022-07-23T07:49:03;97416.31;;;27.67;56.31
29045;BME280;16133;49.486;12.176;2022-07-23T07:51:29;97431.13;;;27.85;56.45
29045;BME280;16133;49.486;12.176;2022-07-23T07:53:54;97430.06;;;28.04;55.94
29045;BME280;16133;49.486;12.176;2022-07-23T07:56:20;97430.72;;;28.20;55.57
29045;BME280;16133;49.486;12.176;2022-07-23T07:58:45;97431.19;;;28.27;55.36
29045;BME280;16133;49.486;12.176;2022-07-23T08:01:10;97435.13;;;28.40;55.14
29045;BME280;16133;49.486;12.176;2022-07-23T08:03:36;97438.81;;;28.49;54.21
29045;BME280;16133;49.486;12.176;2022-07-23T08:06:01;97442.56;;;28.53;53.72
29045;BME280;16133;49.486;12.176;2022-07-23T08:08:26;97444.06;;;28.64;53.71
29045;BME280;16133;49.486;12.176;2022-07-23T08:10:52;97443.44;;;28.72;53.66
29045;BME280;16133;49.486;12.176;2022-07-23T08:13:17;97445.72;;;28.84;52.78
29045;BME280;16133;49.486;12.176;2022-07-23T08:15:43;97438.47;;;28.93;52.78
29045;BME280;16133;49.486;12.176;2022-07-23T08:18:09;97442.28;;;29.11;52.57
29045;BME280;16133;49.486;12.176;2022-07-23T08:20:34;97434.81;;;29.35;52.65
29045;BME280;16133;49.486;12.176;2022-07-23T08:23:03;97434.56;;;29.64;52.24
29045;BME280;16133;49.486;12.176;2022-07-23T08:27:55;97446.19;;;30.02;51.24
29045;BME280;16133;49.486;12.176;2022-07-23T08:30:21;97439.91;;;30.15;51.41
29045;BME280;16133;49.486;12.176;2022-07-23T08:32:56;97448.53;;;30.22;51.09
29045;BME280;16133;49.486;12.176;2022-07-23T08:35:34;97452.81;;;30.28;51.41
29045;BME280;16133;49.486;12.176;2022-07-23T08:38:03;97456.63;;;30.41;50.43
29045;BME280;16133;49.486;12.176;2022-07-23T08:40:31;97463.72;;;30.55;48.03
29045;BME280;16133;49.486;12.176;2022-07-23T08:42:57;97447.88;;;30.79;47.73
29045;BME280;16133;49.486;12.176;2022-07-23T08:45:24;97443.81;;;31.13;46.83
29045;BME280;16133;49.486;12.176;2022-07-23T08:47:51;97447.81;;;31.29;44.25
29045;BME280;16133;49.486;12.176;2022-07-23T08:50:18;97449.16;;;31.40;42.37
29045;BME280;16133;49.486;12.176;2022-07-23T08:52:43;97447.78;;;31.51;41.49
29045;BME280;16133;49.486;12.176;2022-07-23T08:55:09;97449.81;;;31.59;42.72
29045;BME280;16133;49.486;12.176;2022-07-23T08:57:35;97453.59;;;31.50;40.44
29045;BME280;16133;49.486;12.176;2022-07-23T09:00:00;97448.72;;;31.24;40.48
29045;BME280;16133;49.486;12.176;2022-07-23T09:02:26;97456.31;;;31.05;41.27
29045;BME280;16133;49.486;12.176;2022-07-23T09:04:51;97452.00;;;31.26;40.43
29045;BME280;16133;49.486;12.176;2022-07-23T09:07:17;97455.28;;;31.15;41.15
29045;BME280;16133;49.486;12.176;2022-07-23T09:09:42;97451.81;;;31.23;40.76
29045;BME280;16133;49.486;12.176;2022-07-23T09:12:09;97459.22;;;31.22;41.48
29045;BME280;16133;49.486;12.176;2022-07-23T09:14:39;97460.16;;;31.18;41.34
29045;BME280;16133;49.486;12.176;2022-07-23T09:17:13;97469.25;;;31.05;40.93
29045;BME280;16133;49.486;12.176;2022-07-23T09:19:39;97459.00;;;30.83;40.29
29045;BME280;16133;49.486;12.176;2022-07-23T09:22:18;97469.19;;;30.69;38.86
29045;BME280;16133;49.486;12.176;2022-07-23T09:25:02;97470.00;;;30.28;40.95
29045;BME280;16133;49.486;12.176;2022-07-23T09:30:23;97462.72;;;30.51;40.50
29045;BME280;16133;49.486;12.176;2022-07-23T09:33:11;97461.66;;;30.74;40.27
29045;BME280;16133;49.486;12.176;2022-07-23T09:38:12;97454.97;;;30.80;39.86
29045;BME280;16133;49.486;12.176;2022-07-23T09:40:37;97464.03;;;30.67;40.21
29045;BME280;16133;49.486;12.176;2022-07-23T09:43:03;97462.00;;;30.59;40.42
29045;BME280;16133;49.486;12.176;2022-07-23T09:45:28;97453.38;;;30.66;41.31
29045;BME280;16133;49.486;12.176;2022-07-23T09:48:18;97444.81;;;30.81;41.30
29045;BME280;16133;49.486;12.176;2022-07-23T09:50:44;97448.88;;;30.83;40.87
29045;BME280;16133;49.486;12.176;2022-07-23T09:53:30;97464.03;;;30.67;41.26
29045;BME280;16133;49.486;12.176;2022-07-23T09:55:58;97463.53;;;30.38;41.76
29045;BME280;16133;49.486;12.176;2022-07-23T09:58:26;97460.28;;;29.95;41.67
29045;BME280;16133;49.486;12.176;2022-07-23T10:00:55;97470.25;;;29.59;42.31
29045;BME280;16133;49.486;12.176;2022-07-23T10:03:21;97474.47;;;29.14;43.08
29045;BME280;16133;49.486;12.176;2022-07-23T10:05:50;97480.03;;;28.71;43.49
29045;BME280;16133;49.486;12.176;2022-07-23T10:08:18;97481.34;;;28.31;44.58
29045;BME280;16133;49.486;12.176;2022-07-23T10:10:46;97479.44;;;27.79;46.02
29045;BME280;16133;49.486;12.176;2022-07-23T10:13:13;97483.22;;;27.54;47.42
29045;BME280;16133;49.486;12.176;2022-07-23T10:16:05;97498.97;;;27.24;48.03
29045;BME280;16133;49.486;12.176;2022-07-23T10:18:31;97491.44;;;26.61;49.36
29045;BME280;16133;49.486;12.176;2022-07-23T10:20:56;97498.94;;;26.26;49.44
29045;BME280;16133;49.486;12.176;2022-07-23T10:23:37;97493.56;;;26.05;49.25
29045;BME280;16133;49.486;12.176;2022-07-23T10:26:18;97511.00;;;25.84;49.64
29045;BME280;16133;49.486;12.176;2022-07-23T10:37:18;97522.38;;;25.15;49.98
29045;BME280;16133;49.486;12.176;2022-07-23T10:40:08;97528.91;;;25.19;50.23
29045;BME280;16133;49.486;12.176;2022-07-23T10:42:35;97532.72;;;25.08;51.64
29045;BME280;16133;49.486;12.176;2022-07-23T10:45:01;97533.25;;;25.05;52.60
29045;BME280;16133;49.486;12.176;2022-07-23T10:47:46;97536.50;;;25.02;52.49
29045;BME280;16133;49.486;12.176;2022-07-23T10:53:09;97543.94;;;24.60;56.18
29045;BME280;16133;49.486;12.176;2022-07-23T10:58:04;97539.50;;;24.39;56.15
29045;BME280;16133;49.486;12.176;2022-07-23T11:00:35;97541.16;;;24.40;56.27
29045;BME280;16133;49.486;12.176;2022-07-23T11:03:27;97538.44;;;24.40;56.04
29045;BME280;16133;49.486;12.176;2022-07-23T11:05:47;97529.72;;;24.33;56.53
29045;BME280;16133;49.486;12.176;2022-07-23T11:08:16;97536.34;;;24.57;56.69
29045;BME280;16133;49.486;12.176;2022-07-23T11:34:29;97546.13;;;26.75;52.96
29045;BME280;16133;49.486;12.176;2022-07-23T11:36:55;97547.13;;;26.94;52.36
29045;BME280;16133;49.486;12.176;2022-07-23T11:39:20;97546.38;;;27.28;50.23
29045;BME280;16133;49.486;12.176;2022-07-23T11:41:49;97535.84;;;27.55;50.28
29045;BME280;16133;49.486;12.176;2022-07-23T11:44:29;97544.56;;;27.86;50.14
29045;BME280;16133;49.486;12.176;2022-07-23T11:46:59;97533.03;;;28.23;49.21
29045;BME280;16133;49.486;12.176;2022-07-23T11:49:25;97529.66;;;28.55;48.32
29045;BME280;16133;49.486;12.176;2022-07-23T11:52:10;97525.94;;;28.69;46.53
29045;BME280;16133;49.486;12.176;2022-07-23T11:54:47;97524.19;;;28.78;46.77
29045;BME280;16133;49.486;12.176;2022-07-23T11:57:13;97532.19;;;29.12;46.24
29045;BME280;16133;49.486;12.176;2022-07-23T11:59:39;97528.16;;;29.28;44.28
29045;BME280;16133;49.486;12.176;2022-07-23T12:02:06;97527.78;;;29.35;44.45
29045;BME280;16133;49.486;12.176;2022-07-23T12:04:45;97530.78;;;29.33;43.21
29045;BME280;16133;49.486;12.176;2022-07-23T12:07:33;97529.09;;;29.37;43.14
29045;BME280;16133;49.486;12.176;2022-07-23T12:10:03;97524.22;;;29.16;43.52
29045;BME280;16133;49.486;12.176;2022-07-23T12:12:51;97516.19;;;28.63;45.07
29045;BME280;16133;49.486;12.176;2022-07-23T12:15:19;97516.78;;;28.36;45.24
29045;BME280;16133;49.486;12.176;2022-07-23T12:17:48;97519.66;;;28.21;45.95
29045;BME280;16133;49.486;12.176;2022-07-23T12:20:16;97521.84;;;27.67;46.61
29045;BME280;16133;49.486;12.176;2022-07-23T12:22:44;97511.16;;;27.36;48.49
29045;BME280;16133;49.486;12.176;2022-07-23T12:25:12;97519.16;;;27.23;49.20
29045;BME280;16133;49.486;12.176;2022-07-23T12:27:38;97513.09;;;27.31;48.61
29045;BME280;16133;49.486;12.176;2022-07-23T12:32:46;97515.50;;;27.37;48.75
29045;BME280;16133;49.486;12.176;2022-07-23T12:35:12;97504.84;;;27.41;48.92
29045;BME280;16133;49.486;12.176;2022-07-23T12:37:40;97505.66;;;27.41;48.55
29045;BME280;16133;49.486;12.176;2022-07-23T12:43:18;97506.47;;;27.47;47.83
29045;BME280;16133;49.486;12.176;2022-07-23T12:46:05;97495.63;;;26.44;51.62
29045;BME280;16133;49.486;12.176;2022-07-23T12:48:36;97497.72;;;25.67;52.78
29045;BME280;16133;49.486;12.176;2022-07-23T12:51:07;97487.38;;;25.24;55.26
29045;BME280;16133;49.486;12.176;2022-07-23T12:56:26;97472.44;;;25.21;56.91
29045;BME280;16133;49.486;12.176;2022-07-23T12:59:04;97482.19;;;25.43;55.65
29045;BME280;16133;49.486;12.176;2022-07-23T13:01:38;97483.84;;;25.59;53.85
29045;BME280;16133;49.486;12.176;2022-07-23T13:04:05;97486.00;;;25.87;55.09
29045;BME280;16133;49.486;12.176;2022-07-23T13:06:38;97489.72;;;26.16;54.45
29045;BME280;16133;49.486;12.176;2022-07-23T13:09:06;97501.00;;;26.54;53.77
29045;BME280;16133;49.486;12.176;2022-07-23T13:11:32;97492.38;;;26.96;51.68
29045;BME280;16133;49.486;12.176;2022-07-23T13:13:59;97490.13;;;27.42;50.99
29045;BME280;16133;49.486;12.176;2022-07-23T13:16:26;97479.13;;;27.86;49.78
29045;BME280;16133;49.486;12.176;2022-07-23T13:18:51;97483.91;;;28.23;46.74
29045;BME280;16133;49.486;12.176;2022-07-23T13:21:17;97478.91;;;28.30;46.64
29045;BME280;16133;49.486;12.176;2022-07-23T13:23:42;97464.81;;;28.23;46.23
29045;BME280;16133;49.486;12.176;2022-07-23T13:26:08;97479.63;;;28.17;46.35
29045;BME280;16133;49.486;12.176;2022-07-23T13:28:33;97469.25;;;28.14;46.39
29045;BME280;16133;49.486;12.176;2022-07-23T13:30:59;97480.09;;;28.24;46.49
29045;BME280;16133;49.486;12.176;2022-07-23T13:33:24;97478.03;;;28.34;45.68
29045;BME280;16133;49.486;12.176;2022-07-23T13:35:51;97474.25;;;28.30;45.01
29045;BME280;16133;49.486;12.176;2022-07-23T13:38:18;97470.88;;;28.38;45.23